sensor_id;sensor_type;location;lat;lon;timestamp;P1;durP1;ratioP1;P2;durP2;ratioP2
74342;SDS011;62767;50.300;8.070;2024-01-11T00:00:15;9.65;;;5.22;;
74342;SDS011;62767;50.300;8.070;2024-01-11T00:02:41;8.10;;;4.75;;
74342;SDS011;62767;50.300;8.070;2024-01-11T00:05:07;8.95;;;5.03;;
74342;SDS011;62767;50.300;8.070;2024-01-11T00:07:32;9.63;;;5.40;;
74342;SDS011;62767;50.300;8.070;2024-01-11T00:09:58;9.27;;;5.30;;
74342;SDS011;62767;50.300;8.070;2024-01-11T00:12:25;9.40;;;5.22;;
74342;SDS011;62767;50.300;8.070;2024-01-11T00:14:51;8.52;;;5.13;;
74342;SDS011;62767;50.300;8.070;2024-01-11T00:17:16;8.82;;;5.32;;
74342;SDS011;62767;50.300;8.070;2024-01-11T00:19:42;8.50;;;5.53;;
74342;SDS011;62767;50.300;8.070;2024-01-11T00:22:07;8.80;;;5.05;;
74342;SDS011;62767;50.300;8.070;2024-01-11T00:24:33;8.93;;;5.28;;
74342;SDS011;62767;50.300;8.070;2024-01-11T00:26:58;8.10;;;5.20;;
74342;SDS011;62767;50.300;8.070;2024-01-11T00:29:23;8.32;;;4.88;;
74342;SDS011;62767;50.300;8.070;2024-01-11T00:31:49;8.10;;;4.63;;
74342;SDS011;62767;50.300;8.070;2024-01-11T00:34:14;8.13;;;4.53;;
74342;SDS011;62767;50.300;8.070;2024-01-11T00:36:40;8.77;;;5.10;;
74342;SDS011;62767;50.300;8.070;2024-01-11T00:39:05;7.45;;;5.10;;
74342;SDS011;62767;50.300;8.070;2024-01-11T00:41:31;8.60;;;5.07;;
74342;SDS011;62767;50.300;8.070;2024-01-11T00:43:57;9.00;;;5.70;;
74342;SDS011;62767;50.300;8.070;2024-01-11T00:46:22;8.10;;;5.05;;
74342;SDS011;62767;50.300;8.070;2024-01-11T00:48:48;9.30;;;4.95;;
74342;SDS011;62767;50.300;8.070;2024-01-11T00:51:13;9.07;;;4.88;;
74342;SDS011;62767;50.300;8.070;2024-01-11T00:53:40;8.27;;;5.10;;
74342;SDS011;62767;50.300;8.070;2024-01-11T00:56:14;8.35;;;5.03;;
74342;SDS011;62767;50.300;8.070;2024-01-11T00:58:40;8.18;;;4.63;;
74342;SDS011;62767;50.300;8.070;2024-01-11T01:01:08;8.27;;;4.60;;
74342;SDS011;62767;50.300;8.070;2024-01-11T01:03:34;8.57;;;5.00;;
74342;SDS011;62767;50.300;8.070;2024-01-11T01:06:00;7.53;;;4.72;;
74342;SDS011;62767;50.300;8.070;2024-01-11T01:08:27;8.85;;;5.38;;
74342;SDS011;62767;50.300;8.070;2024-01-11T01:10:52;8.02;;;4.82;;
74342;SDS011;62767;50.300;8.070;2024-01-11T01:13:18;7.88;;;4.90;;
74342;SDS011;62767;50.300;8.070;2024-01-11T01:15:43;7.20;;;4.03;;
74342;SDS011;62767;50.300;8.070;2024-01-11T01:18:09;9.98;;;4.60;;
74342;SDS011;62767;50.300;8.070;2024-01-11T01:20:34;8.07;;;4.38;;
74342;SDS011;62767;50.300;8.070;2024-01-11T01:23:00;8.70;;;4.15;;
74342;SDS011;62767;50.300;8.070;2024-01-11T01:25:26;8.50;;;4.40;;
74342;SDS011;62767;50.300;8.070;2024-01-11T01:27:51;8.15;;;4.15;;
74342;SDS011;62767;50.300;8.070;2024-01-11T01:30:17;8.00;;;4.40;;
74342;SDS011;62767;50.300;8.070;2024-01-11T01:32:43;8.35;;;4.43;;
74342;SDS011;62767;50.300;8.070;2024-01-11T01:35:08;7.90;;;4.20;;
74342;SDS011;62767;50.300;8.070;2024-01-11T01:37:33;8.45;;;4.10;;
74342;SDS011;62767;50.300;8.070;2024-01-11T01:39:59;7.30;;;4.60;;
74342;SDS011;62767;50.300;8.070;2024-01-11T01:42:24;8.35;;;4.35;;
74342;SDS011;62767;50.300;8.070;2024-01-11T01:44:50;8.10;;;4.53;;
74342;SDS011;62767;50.300;8.070;2024-01-11T01:47:15;7.32;;;4.30;;
74342;SDS011;62767;50.300;8.070;2024-01-11T01:49:42;8.38;;;4.47;;
74342;SDS011;62767;50.300;8.070;2024-01-11T01:52:09;7.63;;;3.95;;
74342;SDS011;62767;50.300;8.070;2024-01-11T01:54:36;8.65;;;4.47;;
74342;SDS011;62767;50.300;8.070;2024-01-11T01:57:02;8.35;;;4.40;;
74342;SDS011;62767;50.300;8.070;2024-01-11T01:59:29;7.75;;;4.72;;
74342;SDS011;62767;50.300;8.070;2024-01-11T02:01:55;8.27;;;4.18;;
74342;SDS011;62767;50.300;8.070;2024-01-11T02:04:21;7.70;;;4.38;;
74342;SDS011;62767;50.300;8.070;2024-01-11T02:06:48;8.25;;;4.78;;
74342;SDS011;62767;50.300;8.070;2024-01-11T02:11:41;7.18;;;4.00;;
74342;SDS011;62767;50.300;8.070;2024-01-11T02:14:07;8.65;;;4.32;;
74342;SDS011;62767;50.300;8.070;2024-01-11T02:16:33;7.30;;;4.13;;
74342;SDS011;62767;50.300;8.070;2024-01-11T02:18:59;7.72;;;4.18;;
74342;SDS011;62767;50.300;8.070;2024-01-11T02:21:25;7.38;;;4.05;;
74342;SDS011;62767;50.300;8.070;2024-01-11T02:23:56;8.93;;;4.43;;
74342;SDS011;62767;50.300;8.070;2024-01-11T02:26:32;6.80;;;4.20;;
74342;SDS011;62767;50.300;8.070;2024-01-11T02:28:58;8.15;;;4.30;;
74342;SDS011;62767;50.300;8.070;2024-01-11T02:31:24;6.70;;;3.92;;
74342;SDS011;62767;50.300;8.070;2024-01-11T02:33:50;8.50;;;5.03;;
74342;SDS011;62767;50.300;8.070;2024-01-11T02:36:17;7.45;;;4.20;;
74342;SDS011;62767;50.300;8.070;2024-01-11T02:38:44;7.15;;;4.05;;
74342;SDS011;62767;50.300;8.070;2024-01-11T02:41:10;8.02;;;4.10;;
74342;SDS011;62767;50.300;8.070;2024-01-11T02:43:36;7.20;;;4.07;;
74342;SDS011;62767;50.300;8.070;2024-01-11T02:46:02;5.80;;;3.65;;
74342;SDS011;62767;50.300;8.070;2024-01-11T02:48:31;6.55;;;3.75;;
74342;SDS011;62767;50.300;8.070;2024-01-11T02:50:57;6.60;;;3.85;;
74342;SDS011;62767;50.300;8.070;2024-01-11T02:53:23;6.75;;;3.53;;
74342;SDS011;62767;50.300;8.070;2024-01-11T02:55:51;6.63;;;3.92;;
74342;SDS011;62767;50.300;8.070;2024-01-11T02:58:17;8.00;;;4.35;;
74342;SDS011;62767;50.300;8.070;2024-01-11T03:00:43;6.57;;;3.80;;
74342;SDS011;62767;50.300;8.070;2024-01-11T03:03:08;6.70;;;4.05;;
74342;SDS011;62767;50.300;8.070;2024-01-11T03:05:34;7.25;;;3.92;;
74342;SDS011;62767;50.300;8.070;2024-01-11T03:07:59;7.88;;;4.88;;
74342;SDS011;62767;50.300;8.070;2024-01-11T03:10:25;7.60;;;3.83;;
74342;SDS011;62767;50.300;8.070;2024-01-11T03:12:50;7.18;;;4.50;;
74342;SDS011;62767;50.300;8.070;2024-01-11T03:15:16;7.15;;;3.65;;
74342;SDS011;62767;50.300;8.070;2024-01-11T03:17:41;5.88;;;3.97;;
74342;SDS011;62767;50.300;8.070;2024-01-11T03:20:07;7.30;;;4.00;;
74342;SDS011;62767;50.300;8.070;2024-01-11T03:22:33;5.38;;;3.20;;
74342;SDS011;62767;50.300;8.070;2024-01-11T03:24:59;6.35;;;4.00;;
74342;SDS011;62767;50.300;8.070;2024-01-11T03:27:24;6.95;;;3.83;;
74342;SDS011;62767;50.300;8.070;2024-01-11T03:29:50;7.72;;;4.00;;
74342;SDS011;62767;50.300;8.070;2024-01-11T03:32:15;7.97;;;4.18;;
74342;SDS011;62767;50.300;8.070;2024-01-11T03:34:41;7.95;;;4.20;;
74342;SDS011;62767;50.300;8.070;2024-01-11T03:37:06;6.65;;;3.88;;
74342;SDS011;62767;50.300;8.070;2024-01-11T03:39:32;6.43;;;3.83;;
74342;SDS011;62767;50.300;8.070;2024-01-11T03:46:50;7.78;;;3.60;;
74342;SDS011;62767;50.300;8.070;2024-01-11T03:54:07;7.68;;;3.80;;
74342;SDS011;62767;50.300;8.070;2024-01-11T03:56:33;7.05;;;3.83;;
74342;SDS011;62767;50.300;8.070;2024-01-11T03:58:58;6.93;;;3.72;;
74342;SDS011;62767;50.300;8.070;2024-01-11T04:01:24;6.32;;;3.75;;
74342;SDS011;62767;50.300;8.070;2024-01-11T04:03:49;7.30;;;4.35;;
74342;SDS011;62767;50.300;8.070;2024-01-11T04:06:18;6.28;;;3.80;;
74342;SDS011;62767;50.300;8.070;2024-01-11T04:08:46;6.85;;;3.88;;
74342;SDS011;62767;50.300;8.070;2024-01-11T04:11:12;8.88;;;4.50;;
74342;SDS011;62767;50.300;8.070;2024-01-11T04:13:37;6.20;;;3.75;;
74342;SDS011;62767;50.300;8.070;2024-01-11T04:16:05;6.57;;;3.75;;
74342;SDS011;62767;50.300;8.070;2024-01-11T04:18:31;6.13;;;4.00;;
74342;SDS011;62767;50.300;8.070;2024-01-11T04:20:57;6.00;;;3.80;;
74342;SDS011;62767;50.300;8.070;2024-01-11T04:23:23;6.88;;;3.97;;
74342;SDS011;62767;50.300;8.070;2024-01-11T04:25:48;6.72;;;3.78;;
74342;SDS011;62767;50.300;8.070;2024-01-11T04:28:16;6.85;;;3.90;;
74342;SDS011;62767;50.300;8.070;2024-01-11T04:30:42;7.13;;;3.80;;
74342;SDS011;62767;50.300;8.070;2024-01-11T04:33:08;6.88;;;3.90;;
74342;SDS011;62767;50.300;8.070;2024-01-11T04:35:34;6.20;;;3.78;;
74342;SDS011;62767;50.300;8.070;2024-01-11T04:38:00;7.20;;;3.80;;
74342;SDS011;62767;50.300;8.070;2024-01-11T04:40:25;6.47;;;3.53;;
74342;SDS011;62767;50.300;8.070;2024-01-11T04:42:51;6.20;;;3.67;;
74342;SDS011;62767;50.300;8.070;2024-01-11T04:45:16;7.05;;;3.78;;
74342;SDS011;62767;50.300;8.070;2024-01-11T04:47:42;7.43;;;3.95;;
74342;SDS011;62767;50.300;8.070;2024-01-11T04:50:07;7.07;;;3.97;;
74342;SDS011;62767;50.300;8.070;2024-01-11T04:52:33;7.75;;;4.13;;
74342;SDS011;62767;50.300;8.070;2024-01-11T04:54:59;6.55;;;3.85;;
74342;SDS011;62767;50.300;8.070;2024-01-11T04:57:24;7.00;;;3.50;;
74342;SDS011;62767;50.300;8.070;2024-01-11T04:59:50;6.97;;;3.53;;
74342;SDS011;62767;50.300;8.070;2024-01-11T05:02:15;6.35;;;4.03;;
74342;SDS011;62767;50.300;8.070;2024-01-11T05:04:41;5.32;;;3.53;;
74342;SDS011;62767;50.300;8.070;2024-01-11T05:07:06;6.43;;;3.78;;
74342;SDS011;62767;50.300;8.070;2024-01-11T05:09:32;6.80;;;3.85;;
74342;SDS011;62767;50.300;8.070;2024-01-11T05:11:57;6.18;;;3.72;;
74342;SDS011;62767;50.300;8.070;2024-01-11T05:14:23;7.57;;;4.20;;
74342;SDS011;62767;50.300;8.070;2024-01-11T05:16:49;6.53;;;3.78;;
74342;SDS011;62767;50.300;8.070;2024-01-11T05:19:15;6.60;;;4.10;;
74342;SDS011;62767;50.300;8.070;2024-01-11T05:21:41;6.50;;;3.63;;
74342;SDS011;62767;50.300;8.070;2024-01-11T05:24:06;6.50;;;4.07;;
74342;SDS011;62767;50.300;8.070;2024-01-11T05:26:32;5.65;;;3.60;;
74342;SDS011;62767;50.300;8.070;2024-01-11T05:28:57;5.80;;;3.60;;
74342;SDS011;62767;50.300;8.070;2024-01-11T05:31:23;6.10;;;3.60;;
74342;SDS011;62767;50.300;8.070;2024-01-11T05:33:49;6.68;;;3.50;;
74342;SDS011;62767;50.300;8.070;2024-01-11T05:36:14;6.68;;;3.65;;
74342;SDS011;62767;50.300;8.070;2024-01-11T05:38:40;6.20;;;3.50;;
74342;SDS011;62767;50.300;8.070;2024-01-11T05:41:05;5.80;;;3.33;;
74342;SDS011;62767;50.300;8.070;2024-01-11T05:43:31;6.35;;;3.45;;
74342;SDS011;62767;50.300;8.070;2024-01-11T05:45:56;5.95;;;3.10;;
74342;SDS011;62767;50.300;8.070;2024-01-11T05:48:23;6.63;;;3.83;;
74342;SDS011;62767;50.300;8.070;2024-01-11T05:50:49;7.35;;;3.72;;
74342;SDS011;62767;50.300;8.070;2024-01-11T05:53:15;7.00;;;3.95;;
74342;SDS011;62767;50.300;8.070;2024-01-11T05:55:42;6.32;;;3.45;;
74342;SDS011;62767;50.300;8.070;2024-01-11T05:58:08;5.82;;;3.42;;
74342;SDS011;62767;50.300;8.070;2024-01-11T06:00:33;5.63;;;3.50;;
74342;SDS011;62767;50.300;8.070;2024-01-11T06:02:58;6.75;;;3.78;;
74342;SDS011;62767;50.300;8.070;2024-01-11T06:05:25;6.78;;;3.72;;
74342;SDS011;62767;50.300;8.070;2024-01-11T06:07:50;7.22;;;4.05;;
74342;SDS011;62767;50.300;8.070;2024-01-11T06:10:16;6.72;;;3.13;;
74342;SDS011;62767;50.300;8.070;2024-01-11T06:12:42;6.05;;;3.60;;
74342;SDS011;62767;50.300;8.070;2024-01-11T06:15:07;5.80;;;3.28;;
74342;SDS011;62767;50.300;8.070;2024-01-11T06:17:35;5.43;;;3.35;;
74342;SDS011;62767;50.300;8.070;2024-01-11T06:20:01;5.85;;;3.30;;
74342;SDS011;62767;50.300;8.070;2024-01-11T06:22:27;6.28;;;3.78;;
74342;SDS011;62767;50.300;8.070;2024-01-11T06:24:52;6.15;;;3.47;;
74342;SDS011;62767;50.300;8.070;2024-01-11T06:27:18;6.07;;;3.50;;
74342;SDS011;62767;50.300;8.070;2024-01-11T06:29:44;6.68;;;3.67;;
74342;SDS011;62767;50.300;8.070;2024-01-11T06:32:09;6.60;;;3.70;;
74342;SDS011;62767;50.300;8.070;2024-01-11T06:34:35;6.32;;;3.40;;
74342;SDS011;62767;50.300;8.070;2024-01-11T06:37:01;5.55;;;3.67;;
74342;SDS011;62767;50.300;8.070;2024-01-11T06:39:28;8.10;;;3.58;;
74342;SDS011;62767;50.300;8.070;2024-01-11T06:44:20;5.55;;;3.05;;
74342;SDS011;62767;50.300;8.070;2024-01-11T06:46:45;6.07;;;3.60;;
74342;SDS011;62767;50.300;8.070;2024-01-11T06:49:11;5.75;;;3.30;;
74342;SDS011;62767;50.300;8.070;2024-01-11T06:51:37;5.93;;;3.60;;
74342;SDS011;62767;50.300;8.070;2024-01-11T06:54:02;7.05;;;3.80;;
74342;SDS011;62767;50.300;8.070;2024-01-11T06:56:28;6.55;;;3.58;;
74342;SDS011;62767;50.300;8.070;2024-01-11T06:58:54;7.68;;;3.78;;
74342;SDS011;62767;50.300;8.070;2024-01-11T07:01:20;5.85;;;3.42;;
74342;SDS011;62767;50.300;8.070;2024-01-11T07:03:45;5.80;;;3.53;;
74342;SDS011;62767;50.300;8.070;2024-01-11T07:06:11;6.63;;;3.53;;
74342;SDS011;62767;50.300;8.070;2024-01-11T07:08:37;7.53;;;4.25;;
74342;SDS011;62767;50.300;8.070;2024-01-11T07:11:02;6.65;;;4.03;;
74342;SDS011;62767;50.300;8.070;2024-01-11T07:13:31;7.80;;;4.03;;
74342;SDS011;62767;50.300;8.070;2024-01-11T07:15:57;6.88;;;3.53;;
74342;SDS011;62767;50.300;8.070;2024-01-11T07:18:23;6.18;;;3.65;;
74342;SDS011;62767;50.300;8.070;2024-01-11T07:20:50;7.63;;;4.65;;
74342;SDS011;62767;50.300;8.070;2024-01-11T07:23:16;7.43;;;4.32;;
74342;SDS011;62767;50.300;8.070;2024-01-11T07:25:41;7.68;;;4.50;;
74342;SDS011;62767;50.300;8.070;2024-01-11T07:28:07;6.70;;;4.03;;
74342;SDS011;62767;50.300;8.070;2024-01-11T07:30:32;8.10;;;4.50;;
74342;SDS011;62767;50.300;8.070;2024-01-11T07:32:58;10.70;;;4.78;;
74342;SDS011;62767;50.300;8.070;2024-01-11T07:35:24;7.88;;;4.50;;
74342;SDS011;62767;50.300;8.070;2024-01-11T07:37:49;8.32;;;4.43;;
74342;SDS011;62767;50.300;8.070;2024-01-11T07:40:15;9.73;;;4.63;;
74342;SDS011;62767;50.300;8.070;2024-01-11T07:42:41;7.90;;;4.57;;
74342;SDS011;62767;50.300;8.070;2024-01-11T07:45:08;7.72;;;4.53;;
74342;SDS011;62767;50.300;8.070;2024-01-11T07:47:35;9.07;;;4.47;;
74342;SDS011;62767;50.300;8.070;2024-01-11T07:50:03;7.60;;;4.60;;
74342;SDS011;62767;50.300;8.070;2024-01-11T07:52:35;9.40;;;4.90;;
74342;SDS011;62767;50.300;8.070;2024-01-11T07:55:02;8.55;;;4.57;;
74342;SDS011;62767;50.300;8.070;2024-01-11T07:57:35;8.63;;;4.45;;
74342;SDS011;62767;50.300;8.070;2024-01-11T08:00:01;12.23;;;4.82;;
74342;SDS011;62767;50.300;8.070;2024-01-11T08:02:38;12.43;;;4.78;;
74342;SDS011;62767;50.300;8.070;2024-01-11T08:05:04;6.63;;;4.10;;
74342;SDS011;62767;50.300;8.070;2024-01-11T08:07:30;8.82;;;4.80;;
74342;SDS011;62767;50.300;8.070;2024-01-11T08:09:56;7.95;;;4.05;;
74342;SDS011;62767;50.300;8.070;2024-01-11T08:12:21;8.20;;;4.45;;
74342;SDS011;62767;50.300;8.070;2024-01-11T08:14:47;8.23;;;4.35;;
74342;SDS011;62767;50.300;8.070;2024-01-11T08:17:13;7.50;;;4.00;;
74342;SDS011;62767;50.300;8.070;2024-01-11T08:19:39;7.07;;;3.90;;
74342;SDS011;62767;50.300;8.070;2024-01-11T08:22:05;6.97;;;3.97;;
74342;SDS011;62767;50.300;8.070;2024-01-11T08:24:31;7.30;;;3.78;;
74342;SDS011;62767;50.300;8.070;2024-01-11T08:26:57;6.75;;;3.78;;
74342;SDS011;62767;50.300;8.070;2024-01-11T08:29:23;8.10;;;4.95;;
74342;SDS011;62767;50.300;8.070;2024-01-11T08:31:49;10.10;;;5.55;;
74342;SDS011;62767;50.300;8.070;2024-01-11T08:34:14;10.02;;;5.50;;
74342;SDS011;62767;50.300;8.070;2024-01-11T08:36:40;10.60;;;5.50;;
74342;SDS011;62767;50.300;8.070;2024-01-11T08:39:06;17.15;;;6.53;;
74342;SDS011;62767;50.300;8.070;2024-01-11T08:41:32;9.25;;;5.43;;
74342;SDS011;62767;50.300;8.070;2024-01-11T08:43:58;9.10;;;5.20;;
74342;SDS011;62767;50.300;8.070;2024-01-11T08:46:27;10.05;;;5.18;;
74342;SDS011;62767;50.300;8.070;2024-01-11T08:48:56;10.50;;;5.65;;
74342;SDS011;62767;50.300;8.070;2024-01-11T08:51:22;8.88;;;5.10;;
74342;SDS011;62767;50.300;8.070;2024-01-11T08:53:48;10.98;;;5.93;;
74342;SDS011;62767;50.300;8.070;2024-01-11T08:56:13;11.07;;;5.35;;
74342;SDS011;62767;50.300;8.070;2024-01-11T08:58:41;10.35;;;5.03;;
74342;SDS011;62767;50.300;8.070;2024-01-11T09:01:06;11.25;;;5.43;;
74342;SDS011;62767;50.300;8.070;2024-01-11T09:03:34;12.55;;;5.22;;
74342;SDS011;62767;50.300;8.070;2024-01-11T09:06:00;8.75;;;4.85;;
74342;SDS011;62767;50.300;8.070;2024-01-11T09:08:27;9.65;;;5.53;;
74342;SDS011;62767;50.300;8.070;2024-01-11T09:10:52;8.75;;;4.63;;
74342;SDS011;62767;50.300;8.070;2024-01-11T09:13:18;9.70;;;4.80;;
74342;SDS011;62767;50.300;8.070;2024-01-11T09:15:44;8.13;;;4.65;;
74342;SDS011;62767;50.300;8.070;2024-01-11T09:18:10;9.82;;;4.95;;
74342;SDS011;62767;50.300;8.070;2024-01-11T09:20:35;7.63;;;4.45;;
74342;SDS011;62767;50.300;8.070;2024-01-11T09:23:01;8.70;;;4.97;;
74342;SDS011;62767;50.300;8.070;2024-01-11T09:25:30;10.82;;;4.80;;
74342;SDS011;62767;50.300;8.070;2024-01-11T09:27:56;8.73;;;4.53;;
74342;SDS011;62767;50.300;8.070;2024-01-11T09:30:21;10.02;;;4.72;;
74342;SDS011;62767;50.300;8.070;2024-01-11T09:32:47;8.02;;;4.30;;
74342;SDS011;62767;50.300;8.070;2024-01-11T09:35:13;13.52;;;5.07;;
74342;SDS011;62767;50.300;8.070;2024-01-11T09:37:39;9.68;;;5.97;;
74342;SDS011;62767;50.300;8.070;2024-01-11T09:40:05;10.73;;;5.72;;
74342;SDS011;62767;50.300;8.070;2024-01-11T09:42:36;9.15;;;4.75;;
74342;SDS011;62767;50.300;8.070;2024-01-11T09:45:02;10.18;;;5.38;;
74342;SDS011;62767;50.300;8.070;2024-01-11T09:47:34;8.63;;;5.13;;
74342;SDS011;62767;50.300;8.070;2024-01-11T09:50:02;11.20;;;5.82;;
74342;SDS011;62767;50.300;8.070;2024-01-11T09:54:53;9.82;;;5.28;;
74342;SDS011;62767;50.300;8.070;2024-01-11T09:57:23;9.75;;;5.20;;
74342;SDS011;62767;50.300;8.070;2024-01-11T09:59:52;8.18;;;5.22;;
74342;SDS011;62767;50.300;8.070;2024-01-11T10:02:21;10.82;;;5.38;;
74342;SDS011;62767;50.300;8.070;2024-01-11T10:04:48;7.75;;;4.60;;
74342;SDS011;62767;50.300;8.070;2024-01-11T10:07:14;9.38;;;5.22;;
74342;SDS011;62767;50.300;8.070;2024-01-11T10:09:43;10.45;;;5.80;;
74342;SDS011;62767;50.300;8.070;2024-01-11T10:12:09;10.18;;;5.75;;
74342;SDS011;62767;50.300;8.070;2024-01-11T10:14:35;8.95;;;5.40;;
74342;SDS011;62767;50.300;8.070;2024-01-11T10:17:00;9.30;;;5.53;;
74342;SDS011;62767;50.300;8.070;2024-01-11T10:19:26;10.70;;;6.18;;
74342;SDS011;62767;50.300;8.070;2024-01-11T10:21:52;10.07;;;5.82;;
74342;SDS011;62767;50.300;8.070;2024-01-11T10:24:18;8.80;;;5.70;;
74342;SDS011;62767;50.300;8.070;2024-01-11T10:26:45;10.65;;;5.95;;
74342;SDS011;62767;50.300;8.070;2024-01-11T10:29:11;10.05;;;5.55;;
74342;SDS011;62767;50.300;8.070;2024-01-11T10:31:38;9.27;;;5.80;;
74342;SDS011;62767;50.300;8.070;2024-01-11T10:34:04;9.07;;;5.72;;
74342;SDS011;62767;50.300;8.070;2024-01-11T10:36:31;8.55;;;5.47;;
74342;SDS011;62767;50.300;8.070;2024-01-11T10:38:58;9.48;;;5.78;;
74342;SDS011;62767;50.300;8.070;2024-01-11T10:41:29;11.57;;;6.40;;
74342;SDS011;62767;50.300;8.070;2024-01-11T10:44:02;11.95;;;6.25;;
74342;SDS011;62767;50.300;8.070;2024-01-11T10:46:28;9.70;;;6.25;;
74342;SDS011;62767;50.300;8.070;2024-01-11T10:48:57;10.02;;;6.28;;
74342;SDS011;62767;50.300;8.070;2024-01-11T10:51:24;10.18;;;5.78;;
74342;SDS011;62767;50.300;8.070;2024-01-11T10:53:53;10.65;;;6.70;;
74342;SDS011;62767;50.300;8.070;2024-01-11T10:56:19;10.57;;;5.90;;
74342;SDS011;62767;50.300;8.070;2024-01-11T10:58:45;9.88;;;5.95;;
74342;SDS011;62767;50.300;8.070;2024-01-11T11:01:12;9.05;;;5.53;;
74342;SDS011;62767;50.300;8.070;2024-01-11T11:03:39;9.02;;;5.90;;
74342;SDS011;62767;50.300;8.070;2024-01-11T11:06:08;10.77;;;6.45;;
74342;SDS011;62767;50.300;8.070;2024-01-11T11:08:35;9.27;;;5.45;;
74342;SDS011;62767;50.300;8.070;2024-01-11T11:11:03;10.23;;;6.07;;
74342;SDS011;62767;50.300;8.070;2024-01-11T11:13:32;8.30;;;5.63;;
74342;SDS011;62767;50.300;8.070;2024-01-11T11:16:00;11.25;;;5.88;;
74342;SDS011;62767;50.300;8.070;2024-01-11T11:18:27;10.57;;;6.03;;
74342;SDS011;62767;50.300;8.070;2024-01-11T11:20:53;11.05;;;6.35;;
74342;SDS011;62767;50.300;8.070;2024-01-11T11:23:19;11.07;;;5.78;;
74342;SDS011;62767;50.300;8.070;2024-01-11T11:25:45;9.77;;;5.97;;
74342;SDS011;62767;50.300;8.070;2024-01-11T11:28:12;12.00;;;6.00;;
74342;SDS011;62767;50.300;8.070;2024-01-11T11:30:43;8.88;;;5.50;;
74342;SDS011;62767;50.300;8.070;2024-01-11T11:35:46;10.95;;;5.50;;
74342;SDS011;62767;50.300;8.070;2024-01-11T11:38:18;8.60;;;5.30;;
74342;SDS011;62767;50.300;8.070;2024-01-11T11:40:46;26.30;;;13.88;;
74342;SDS011;62767;50.300;8.070;2024-01-11T11:43:15;29.35;;;13.82;;
74342;SDS011;62767;50.300;8.070;2024-01-11T11:45:42;33.80;;;16.52;;
74342;SDS011;62767;50.300;8.070;2024-01-11T11:51:09;32.55;;;17.08;;
74342;SDS011;62767;50.300;8.070;2024-01-11T11:53:38;34.42;;;15.68;;
74342;SDS011;62767;50.300;8.070;2024-01-11T11:56:05;31.42;;;16.00;;
74342;SDS011;62767;50.300;8.070;2024-01-11T11:58:32;32.17;;;15.02;;
74342;SDS011;62767;50.300;8.070;2024-01-11T12:00:59;38.20;;;15.63;;
74342;SDS011;62767;50.300;8.070;2024-01-11T12:03:29;26.77;;;13.13;;
74342;SDS011;62767;50.300;8.070;2024-01-11T12:05:59;30.15;;;12.63;;
74342;SDS011;62767;50.300;8.070;2024-01-11T12:08:25;25.27;;;11.63;;
74342;SDS011;62767;50.300;8.070;2024-01-11T12:10:52;21.10;;;10.52;;
74342;SDS011;62767;50.300;8.070;2024-01-11T12:13:18;20.35;;;11.63;;
74342;SDS011;62767;50.300;8.070;2024-01-11T12:15:44;21.33;;;10.63;;
74342;SDS011;62767;50.300;8.070;2024-01-11T12:18:10;20.70;;;11.20;;
74342;SDS011;62767;50.300;8.070;2024-01-11T12:20:35;20.13;;;10.50;;
74342;SDS011;62767;50.300;8.070;2024-01-11T12:23:01;16.50;;;9.57;;
74342;SDS011;62767;50.300;8.070;2024-01-11T12:25:28;18.20;;;9.27;;
74342;SDS011;62767;50.300;8.070;2024-01-11T12:27:54;17.55;;;9.43;;
74342;SDS011;62767;50.300;8.070;2024-01-11T12:30:26;15.93;;;9.30;;
74342;SDS011;62767;50.300;8.070;2024-01-11T12:32:53;18.48;;;8.93;;
74342;SDS011;62767;50.300;8.070;2024-01-11T12:40:37;14.98;;;7.68;;
74342;SDS011;62767;50.300;8.070;2024-01-11T12:43:04;14.30;;;8.18;;
74342;SDS011;62767;50.300;8.070;2024-01-11T12:45:31;15.20;;;8.45;;
74342;SDS011;62767;50.300;8.070;2024-01-11T12:47:58;15.50;;;7.28;;
74342;SDS011;62767;50.300;8.070;2024-01-11T12:50:28;16.60;;;8.02;;
74342;SDS011;62767;50.300;8.070;2024-01-11T12:53:07;14.63;;;7.47;;
74342;SDS011;62767;50.300;8.070;2024-01-11T12:55:32;14.88;;;8.68;;
74342;SDS011;62767;50.300;8.070;2024-01-11T13:00:37;13.68;;;7.70;;
74342;SDS011;62767;50.300;8.070;2024-01-11T13:03:04;11.77;;;7.25;;
74342;SDS011;62767;50.300;8.070;2024-01-11T13:05:30;14.57;;;7.32;;
74342;SDS011;62767;50.300;8.070;2024-01-11T13:08:00;12.63;;;7.50;;
74342;SDS011;62767;50.300;8.070;2024-01-11T13:10:36;14.55;;;7.15;;
74342;SDS011;62767;50.300;8.070;2024-01-11T13:13:01;13.95;;;7.15;;
74342;SDS011;62767;50.300;8.070;2024-01-11T13:15:28;13.85;;;7.28;;
74342;SDS011;62767;50.300;8.070;2024-01-11T13:17:55;11.55;;;6.65;;
74342;SDS011;62767;50.300;8.070;2024-01-11T13:20:24;13.98;;;7.57;;
74342;SDS011;62767;50.300;8.070;2024-01-11T13:25:38;13.60;;;6.28;;
74342;SDS011;62767;50.300;8.070;2024-01-11T13:28:04;14.15;;;6.78;;
74342;SDS011;62767;50.300;8.070;2024-01-11T13:30:31;12.88;;;7.43;;
74342;SDS011;62767;50.300;8.070;2024-01-11T13:32:58;9.77;;;6.03;;
74342;SDS011;62767;50.300;8.070;2024-01-11T13:35:24;9.63;;;6.00;;
74342;SDS011;62767;50.300;8.070;2024-01-11T13:37:50;11.32;;;5.68;;
74342;SDS011;62767;50.300;8.070;2024-01-11T13:40:15;9.90;;;6.13;;
74342;SDS011;62767;50.300;8.070;2024-01-11T13:42:41;11.23;;;6.22;;
74342;SDS011;62767;50.300;8.070;2024-01-11T13:45:06;10.23;;;6.03;;
74342;SDS011;62767;50.300;8.070;2024-01-11T13:47:34;11.05;;;6.13;;
74342;SDS011;62767;50.300;8.070;2024-01-11T13:50:00;11.15;;;5.40;;
74342;SDS011;62767;50.300;8.070;2024-01-11T13:52:26;10.98;;;5.68;;
74342;SDS011;62767;50.300;8.070;2024-01-11T13:54:51;10.88;;;6.35;;
74342;SDS011;62767;50.300;8.070;2024-01-11T13:57:17;8.93;;;5.18;;
74342;SDS011;62767;50.300;8.070;2024-01-11T13:59:42;9.52;;;5.40;;
74342;SDS011;62767;50.300;8.070;2024-01-11T14:02:08;10.18;;;5.43;;
74342;SDS011;62767;50.300;8.070;2024-01-11T14:04:33;8.38;;;4.93;;
74342;SDS011;62767;50.300;8.070;2024-01-11T14:06:59;10.35;;;5.63;;
74342;SDS011;62767;50.300;8.070;2024-01-11T14:09:25;10.05;;;6.05;;
74342;SDS011;62767;50.300;8.070;2024-01-11T14:11:51;10.20;;;5.85;;
74342;SDS011;62767;50.300;8.070;2024-01-11T14:14:17;13.00;;;7.10;;
74342;SDS011;62767;50.300;8.070;2024-01-11T14:16:44;12.07;;;7.05;;
74342;SDS011;62767;50.300;8.070;2024-01-11T14:24:02;14.38;;;6.40;;
74342;SDS011;62767;50.300;8.070;2024-01-11T14:26:28;16.30;;;8.35;;
74342;SDS011;62767;50.300;8.070;2024-01-11T14:28:54;13.38;;;6.20;;
74342;SDS011;62767;50.300;8.070;2024-01-11T14:31:20;10.38;;;6.43;;
74342;SDS011;62767;50.300;8.070;2024-01-11T14:33:45;10.88;;;6.03;;
74342;SDS011;62767;50.300;8.070;2024-01-11T14:36:11;10.57;;;5.93;;
74342;SDS011;62767;50.300;8.070;2024-01-11T14:38:37;10.05;;;5.97;;
74342;SDS011;62767;50.300;8.070;2024-01-11T14:41:03;10.48;;;5.93;;
74342;SDS011;62767;50.300;8.070;2024-01-11T14:43:30;10.50;;;5.47;;
74342;SDS011;62767;50.300;8.070;2024-01-11T14:45:55;10.35;;;5.60;;
74342;SDS011;62767;50.300;8.070;2024-01-11T14:48:21;10.23;;;5.78;;
74342;SDS011;62767;50.300;8.070;2024-01-11T14:50:48;8.55;;;5.07;;
74342;SDS011;62767;50.300;8.070;2024-01-11T14:53:14;9.20;;;5.43;;
74342;SDS011;62767;50.300;8.070;2024-01-11T14:55:39;9.88;;;5.40;;
74342;SDS011;62767;50.300;8.070;2024-01-11T14:58:05;10.43;;;5.85;;
74342;SDS011;62767;50.300;8.070;2024-01-11T15:00:30;9.45;;;5.40;;
74342;SDS011;62767;50.300;8.070;2024-01-11T15:02:56;8.57;;;5.25;;
74342;SDS011;62767;50.300;8.070;2024-01-11T15:05:21;9.23;;;5.25;;
74342;SDS011;62767;50.300;8.070;2024-01-11T15:07:47;8.18;;;5.32;;
74342;SDS011;62767;50.300;8.070;2024-01-11T15:10:12;9.98;;;5.82;;
74342;SDS011;62767;50.300;8.070;2024-01-11T15:12:38;9.90;;;5.47;;
74342;SDS011;62767;50.300;8.070;2024-01-11T15:15:03;9.27;;;5.30;;